Time;durP1;ratioP1;P1;durP2;ratioP2;P2;SDS_P1;SDS_P2;PMS_P1;PMS_P2;Temp;Humidity;BMP_temperature;BMP_pressure;BME280_temperature;BME280_humidity;BME280_pressure;Samples;Min_cycle;Max_cycle;Signal;HPM_P1;HPM_P2
2021/12/05 00:22:03;;;;;;;33.72;9.52;;;2.90;95.90;;;;;;5086369;28;20129;-79
2021/12/05 00:24:37;;;;;;;30.42;8.27;;;2.90;96.00;;;;;;5084494;28;20049;-79
2021/12/05 00:27:14;;;;;;;37.28;10.57;;;2.80;96.10;;;;;;5082087;28;20123;-79
2021/12/05 00:32:27;;;;;;;42.63;8.70;;;2.80;96.10;;;;;;5076863;28;20030;-79
2021/12/05 00:41:07;;;;;;;35.78;7.68;;;2.80;96.00;;;;;;5079125;28;20060;-79
2021/12/05 00:46:27;;;;;;;29.60;6.75;;;2.80;96.00;;;;;;5088096;28;20045;-79
2021/12/05 00:49:18;;;;;;;30.00;7.00;;;2.80;95.90;;;;;;5083413;27;20682;-79
2021/12/05 00:59:55;;;;;;;31.10;6.43;;;2.80;95.30;;;;;;5084400;28;20097;-79
2021/12/05 01:02:50;;;;;;;25.35;5.88;;;2.70;95.30;;;;;;5086812;27;20041;-79
2021/12/05 01:08:26;;;;;;;26.98;6.35;;;2.60;95.50;;;;;;5113978;27;20104;-79
2021/12/05 01:15:59;;;;;;;30.08;6.20;;;2.60;95.20;;;;;;5114758;27;20056;-79
2021/12/05 01:18:27;;;;;;;24.63;6.38;;;2.60;95.20;;;;;;5112195;27;20052;-78
2021/12/05 01:20:59;;;;;;;32.58;5.90;;;2.60;95.40;;;;;;5117546;27;20051;-79
2021/12/05 01:23:54;;;;;;;24.77;5.40;;;2.70;95.00;;;;;;5115107;27;20055;-79
2021/12/05 01:26:38;;;;;;;31.60;6.60;;;2.60;95.00;;;;;;5109717;27;20021;-80
2021/12/05 01:34:42;;;;;;;27.45;6.00;;;2.60;95.20;;;;;;5115942;27;20113;-79
2021/12/05 01:45:54;;;;;;;19.60;4.88;;;2.50;95.20;;;;;;5100616;27;20061;-79
2021/12/05 01:51:53;;;;;;;29.10;5.75;;;2.60;94.80;;;;;;5080900;28;20031;-79
2021/12/05 02:02:22;;;;;;;32.47;5.45;;;2.40;95.00;;;;;;5091151;27;20047;-79
2021/12/05 02:15:58;;;;;;;30.10;4.90;;;2.30;94.50;;;;;;5086920;28;20119;-79
2021/12/05 02:42:53;;;;;;;21.80;4.35;;;2.00;95.20;;;;;;5078869;28;20042;-79
2021/12/05 02:45:20;;;;;;;35.28;4.68;;;2.10;95.30;;;;;;5084028;28;20046;-79
2021/12/05 02:47:51;;;;;;;21.73;4.25;;;2.00;95.40;;;;;;5089819;28;20159;-79
2021/12/05 02:50:21;;;;;;;25.30;4.07;;;2.10;95.30;;;;;;5084984;28;20034;-79
2021/12/05 02:52:48;;;;;;;29.50;4.78;;;2.00;95.30;;;;;;5087286;28;20123;-78
2021/12/05 02:55:26;;;;;;;30.67;4.15;;;2.00;95.20;;;;;;5082670;28;20139;-78
2021/12/05 02:57:58;;;;;;;20.17;4.20;;;2.00;95.20;;;;;;5083809;28;20045;-78
2021/12/05 03:00:36;;;;;;;22.38;3.70;;;2.00;95.00;;;;;;5077631;28;20096;-78
2021/12/05 03:03:06;;;;;;;32.88;4.60;;;1.90;95.10;;;;;;5072519;28;20100;-77
2021/12/05 03:05:33;;;;;;;32.58;4.72;;;1.90;95.00;;;;;;5075474;28;20041;-77
2021/12/05 03:08:01;;;;;;;23.75;4.15;;;1.90;94.90;;;;;;5076252;28;20571;-78
2021/12/05 03:10:29;;;;;;;21.60;4.13;;;1.90;94.90;;;;;;5076331;28;20093;-79
2021/12/05 03:12:56;;;;;;;29.38;3.92;;;1.90;94.90;;;;;;5073423;28;20554;-78
2021/12/05 03:15:23;;;;;;;23.75;3.97;;;1.90;94.80;;;;;;5074547;28;20046;-78
2021/12/05 03:17:50;;;;;;;21.55;4.45;;;1.90;94.90;;;;;;5072889;28;20042;-77
2021/12/05 03:20:20;;;;;;;32.05;4.30;;;2.00;94.90;;;;;;5073933;28;20042;-78
2021/12/05 03:22:47;;;;;;;27.33;3.97;;;1.90;94.80;;;;;;5073507;28;20041;-78
2021/12/05 03:25:14;;;;;;;29.33;4.05;;;1.90;95.10;;;;;;5069847;28;20152;-77
2021/12/05 03:27:41;;;;;;;27.60;3.95;;;2.00;95.20;;;;;;5072943;28;20226;-77
2021/12/05 03:30:14;;;;;;;19.65;4.00;;;2.00;95.20;;;;;;5068852;28;20105;-77
2021/12/05 03:32:41;;;;;;;20.25;4.15;;;2.00;95.40;;;;;;5073545;28;20097;-78
2021/12/05 03:35:09;;;;;;;25.00;3.85;;;2.10;95.30;;;;;;5077617;28;20033;-78
2021/12/05 03:37:36;;;;;;;20.95;3.72;;;2.10;95.20;;;;;;5066492;28;20101;-78
2021/12/05 03:40:05;;;;;;;22.98;4.30;;;2.10;95.20;;;;;;5077354;28;20180;-78
2021/12/05 03:42:32;;;;;;;35.42;4.53;;;2.10;95.10;;;;;;5061254;28;20132;-78
2021/12/05 03:45:00;;;;;;;15.98;3.67;;;2.10;95.10;;;;;;5063923;28;20849;-78
2021/12/05 03:47:28;;;;;;;18.27;3.72;;;2.20;95.40;;;;;;5071744;28;20049;-77
2021/12/05 03:49:55;;;;;;;21.70;4.35;;;2.20;95.40;;;;;;5075754;28;20898;-78
2021/12/05 03:52:22;;;;;;;20.65;4.15;;;2.20;95.50;;;;;;5078813;28;20518;-77
2021/12/05 03:54:49;;;;;;;24.80;4.88;;;2.30;95.10;;;;;;5069632;28;20072;-77
2021/12/05 03:57:16;;;;;;;20.83;3.67;;;2.30;95.10;;;;;;5072893;28;20037;-78
2021/12/05 03:59:44;;;;;;;19.67;4.05;;;2.40;95.20;;;;;;5072893;28;20026;-78
2021/12/05 04:02:11;;;;;;;30.75;4.70;;;2.40;95.20;;;;;;5072786;28;20053;-78
2021/12/05 04:04:40;;;;;;;20.73;3.75;;;2.40;95.30;;;;;;5074795;28;20076;-78
2021/12/05 04:07:08;;;;;;;18.13;4.13;;;2.40;95.40;;;;;;5078049;28;20037;-77
2021/12/05 04:09:35;;;;;;;15.50;4.07;;;2.40;95.20;;;;;;5067234;28;20037;-78
2021/12/05 04:12:03;;;;;;;19.77;3.67;;;2.40;95.00;;;;;;5083808;28;20049;-77
2021/12/05 04:14:54;;;;;;;24.10;3.83;;;2.40;94.90;;;;;;5074466;28;20090;-78
2021/12/05 04:17:22;;;;;;;22.20;4.10;;;2.40;94.60;;;;;;5070330;28;20060;-78
2021/12/05 04:19:49;;;;;;;30.27;4.53;;;2.40;94.70;;;;;;5074884;28;20049;-78
2021/12/05 04:22:16;;;;;;;31.35;5.05;;;2.40;94.90;;;;;;5073689;28;20056;-78
2021/12/05 04:24:44;;;;;;;17.13;4.07;;;2.40;95.10;;;;;;5073934;28;20060;-77
2021/12/05 04:27:12;;;;;;;15.25;3.55;;;2.40;95.00;;;;;;5072152;28;20050;-78
2021/12/05 04:29:38;;;;;;;19.15;4.10;;;2.50;94.80;;;;;;5068802;28;20049;-78
2021/12/05 04:32:07;;;;;;;17.42;3.72;;;2.50;94.60;;;;;;5072520;28;20050;-78
2021/12/05 04:34:34;;;;;;;17.75;4.25;;;2.40;94.70;;;;;;5077284;28;20041;-77
2021/12/05 04:37:01;;;;;;;19.00;4.50;;;2.40;94.70;;;;;;5069664;28;20169;-77
2021/12/05 04:39:29;;;;;;;24.13;4.22;;;2.30;94.90;;;;;;5074675;28;20075;-78
2021/12/05 04:41:56;;;;;;;21.27;4.05;;;2.30;95.10;;;;;;5072426;28;20065;-78
2021/12/05 04:44:23;;;;;;;29.05;5.00;;;2.30;95.20;;;;;;5070383;28;20057;-78
2021/12/05 04:46:50;;;;;;;21.17;4.15;;;2.40;95.20;;;;;;5071942;28;20041;-78
2021/12/05 04:49:17;;;;;;;17.08;5.10;;;2.40;95.20;;;;;;5074422;28;20076;-77
2021/12/05 04:51:45;;;;;;;18.17;4.50;;;2.40;95.20;;;;;;5070978;28;20124;-78
2021/12/05 04:54:16;;;;;;;24.75;5.15;;;2.40;95.20;;;;;;5064036;28;20050;-78
2021/12/05 04:56:44;;;;;;;21.30;4.50;;;2.40;95.20;;;;;;5068098;28;20144;-78
2021/12/05 04:59:15;;;;;;;21.40;4.90;;;2.40;95.20;;;;;;5075493;28;20038;-77
2021/12/05 05:01:47;;;;;;;27.20;5.43;;;2.50;95.20;;;;;;5071024;28;20053;-78
2021/12/05 05:04:26;;;;;;;18.60;4.68;;;2.50;95.30;;;;;;5071601;28;20109;-78
2021/12/05 05:06:56;;;;;;;22.02;5.45;;;2.50;95.00;;;;;;5068388;28;20069;-78
2021/12/05 05:09:23;;;;;;;21.88;5.53;;;2.50;95.20;;;;;;5076984;28;20044;-78
2021/12/05 05:11:50;;;;;;;22.33;5.05;;;2.60;95.30;;;;;;5071954;28;20037;-77
2021/12/05 05:14:17;;;;;;;26.80;5.50;;;2.60;95.30;;;;;;5074859;28;20041;-77
2021/12/05 05:16:47;;;;;;;22.13;5.40;;;2.60;95.40;;;;;;5065021;28;20048;-78
2021/12/05 05:19:16;;;;;;;25.48;5.50;;;2.60;95.20;;;;;;5069643;28;20053;-77
2021/12/05 05:21:53;;;;;;;19.60;5.22;;;2.60;95.20;;;;;;5066240;28;20903;-78
2021/12/05 05:24:42;;;;;;;21.00;5.30;;;2.60;95.00;;;;;;5071818;28;20051;-78
2021/12/05 05:46:40;;;;;;;28.75;6.25;;;2.70;94.20;;;;;;5072837;28;20148;-77
2021/12/05 05:49:20;;;;;;;24.48;6.80;;;2.80;94.20;;;;;;5071840;28;20042;-77
2021/12/05 05:51:47;;;;;;;15.85;6.72;;;2.80;94.20;;;;;;5066459;28;20041;-77
2021/12/05 05:54:14;;;;;;;29.10;7.63;;;2.80;94.40;;;;;;5069561;28;20054;-77
2021/12/05 05:56:43;;;;;;;21.40;6.72;;;2.80;94.50;;;;;;5074364;28;20834;-77
2021/12/05 05:59:20;;;;;;;29.13;7.35;;;2.80;94.60;;;;;;5067752;28;20041;-78
2021/12/05 06:04:17;;;;;;;18.35;7.45;;;2.80;95.00;;;;;;5066484;28;20045;-77
2021/12/05 06:06:49;;;;;;;20.25;7.60;;;2.80;95.10;;;;;;5068461;28;20064;-78
2021/12/05 06:09:16;;;;;;;17.33;6.22;;;2.90;95.20;;;;;;5069049;28;20052;-78
2021/12/05 06:11:43;;;;;;;23.50;7.22;;;2.80;95.00;;;;;;5074995;28;20128;-78
2021/12/05 06:14:09;;;;;;;33.22;9.23;;;2.90;94.90;;;;;;5079142;28;20071;-78
2021/12/05 06:16:36;;;;;;;21.33;8.02;;;2.90;94.90;;;;;;5070823;28;20053;-77
2021/12/05 06:19:04;;;;;;;23.92;7.65;;;2.90;94.90;;;;;;5075407;28;20041;-77
2021/12/05 06:21:31;;;;;;;18.42;6.65;;;2.90;95.00;;;;;;5075645;28;20132;-77
2021/12/05 06:23:58;;;;;;;21.95;7.40;;;2.90;94.50;;;;;;5069129;28;20145;-77
2021/12/05 06:26:25;;;;;;;22.45;6.82;;;2.90;94.50;;;;;;5076044;28;20117;-77
2021/12/05 06:29:06;;;;;;;24.25;7.72;;;2.90;94.40;;;;;;5073339;28;20051;-78
2021/12/05 06:42:33;;;;;;;15.60;7.18;;;3.00;94.70;;;;;;5069352;28;20037;-77
2021/12/05 06:47:47;;;;;;;16.35;7.75;;;3.00;94.60;;;;;;5072835;28;20068;-77
2021/12/05 06:50:13;;;;;;;24.77;8.27;;;3.00;94.50;;;;;;5076399;28;20046;-78
2021/12/05 06:52:43;;;;;;;19.27;8.20;;;3.00;94.50;;;;;;5081101;28;20045;-77
2021/12/05 06:55:11;;;;;;;22.75;8.82;;;3.00;94.60;;;;;;5073149;28;20048;-78
2021/12/05 06:57:37;;;;;;;15.50;7.57;;;3.00;94.70;;;;;;5072714;28;20514;-78
2021/12/05 07:00:09;;;;;;;19.95;8.63;;;3.00;94.60;;;;;;5074355;28;20633;-78
2021/12/05 07:02:36;;;;;;;23.65;8.43;;;3.00;94.30;;;;;;5074087;28;20033;-78
2021/12/05 07:07:35;;;;;;;14.63;7.78;;;3.00;94.70;;;;;;5068882;28;20077;-78
2021/12/05 07:10:04;;;;;;;14.98;7.68;;;3.10;94.30;;;;;;5072002;28;20137;-78
2021/12/05 07:25:07;;;;;;;22.40;9.27;;;3.10;94.20;;;;;;5069007;28;20045;-77
2021/12/05 07:44:08;;;;;;;14.80;7.70;;;3.10;94.20;;;;;;5065303;28;20061;-77
2021/12/05 07:46:35;;;;;;;19.42;8.50;;;3.10;94.50;;;;;;5064751;28;20053;-78
2021/12/05 07:49:03;;;;;;;21.00;8.93;;;3.10;94.50;;;;;;5074361;28;20189;-78
2021/12/05 07:51:31;;;;;;;20.08;8.38;;;3.10;94.70;;;;;;5081141;28;20062;-77
2021/12/05 07:54:09;;;;;;;21.08;8.60;;;3.20;94.60;;;;;;5083924;28;20037;-77
2021/12/05 07:56:56;;;;;;;17.08;8.10;;;3.20;94.50;;;;;;5077730;28;20079;-78
2021/12/05 07:59:40;;;;;;;18.92;8.85;;;3.10;94.50;;;;;;5073819;28;20109;-78
2021/12/05 08:16:09;;;;;;;14.30;8.43;;;3.20;94.50;;;;;;5082368;28;20096;-78
2021/12/05 08:18:40;;;;;;;16.90;7.80;;;3.20;94.30;;;;;;5081892;28;20076;-79
2021/12/05 08:21:08;;;;;;;18.80;8.00;;;3.20;94.30;;;;;;5082927;28;20061;-78
2021/12/05 08:23:35;;;;;;;15.75;8.27;;;3.20;94.30;;;;;;5086446;27;20098;-78
2021/12/05 08:26:07;;;;;;;12.38;7.70;;;3.20;94.50;;;;;;5081497;28;20541;-78
2021/12/05 08:31:27;;;;;;;12.90;6.95;;;3.20;94.40;;;;;;5082214;28;20061;-78
2021/12/05 08:42:49;;;;;;;13.73;7.18;;;3.30;94.40;;;;;;5088630;28;20053;-78
2021/12/05 09:21:46;;;;;;;16.98;8.15;;;3.40;94.80;;;;;;5073197;28;20030;-78
2021/12/05 09:26:58;;;;;;;20.10;8.73;;;3.30;94.90;;;;;;5077589;28;20037;-78
2021/12/05 09:52:37;;;;;;;17.08;9.63;;;3.50;94.80;;;;;;5079415;28;20101;-79
2021/12/05 10:08:39;;;;;;;17.65;9.38;;;3.70;95.00;;;;;;5080639;28;20048;-79
2021/12/05 10:11:22;;;;;;;21.00;10.13;;;3.80;95.00;;;;;;5084634;28;20051;-79
2021/12/05 10:16:53;;;;;;;19.95;10.55;;;3.80;94.80;;;;;;5082906;28;20039;-78
2021/12/05 10:19:56;;;;;;;21.67;9.98;;;3.80;94.60;;;;;;5078630;28;20076;-79
2021/12/05 10:34:56;;;;;;;21.35;10.43;;;4.10;94.40;;;;;;5070260;28;20056;-79
2021/12/05 10:37:25;;;;;;;20.95;10.98;;;4.10;94.00;;;;;;5076323;28;20077;-79
2021/12/05 10:40:12;;;;;;;17.15;10.50;;;4.10;93.90;;;;;;5071108;28;20053;-79
2021/12/05 10:42:53;;;;;;;21.27;10.90;;;4.10;93.10;;;;;;5075428;28;20180;-79
2021/12/05 10:45:23;;;;;;;18.75;10.98;;;4.10;93.20;;;;;;5077251;28;20844;-79
2021/12/05 10:47:54;;;;;;;20.27;10.77;;;4.20;93.40;;;;;;5083832;28;20144;-79
2021/12/05 10:50:27;;;;;;;18.90;11.25;;;4.20;93.20;;;;;;5083500;28;20072;-79
2021/12/05 10:53:16;;;;;;;19.98;11.73;;;4.20;93.50;;;;;;5084135;28;20049;-79
2021/12/05 10:55:43;;;;;;;20.77;11.93;;;4.30;93.70;;;;;;5084623;28;20068;-79
2021/12/05 10:58:09;;;;;;;22.58;11.70;;;4.40;93.90;;;;;;5072888;28;20108;-79
2021/12/05 11:00:36;;;;;;;20.80;11.60;;;4.30;93.40;;;;;;5080750;28;20066;-79
2021/12/05 11:03:20;;;;;;;17.00;11.20;;;4.40;93.40;;;;;;5074943;28;20119;-79
2021/12/05 11:05:48;;;;;;;17.45;10.68;;;4.40;93.10;;;;;;5069301;28;20104;-79
2021/12/05 11:08:33;;;;;;;24.33;11.45;;;4.40;92.70;;;;;;5077088;28;20890;-79
2021/12/05 11:11:12;;;;;;;19.73;11.40;;;4.40;93.10;;;;;;5079301;28;20042;-79
2021/12/05 11:13:40;;;;;;;18.30;11.45;;;4.50;93.10;;;;;;5081514;28;20053;-79
2021/12/05 11:16:36;;;;;;;21.95;11.60;;;4.40;92.20;;;;;;5083102;28;20080;-80
2021/12/05 11:19:37;;;;;;;17.55;10.73;;;4.40;91.60;;;;;;5076784;28;20052;-79
2021/12/05 11:22:10;;;;;;;16.20;10.55;;;4.40;91.10;;;;;;5082618;28;20084;-79
2021/12/05 11:25:02;;;;;;;19.15;10.85;;;4.40;91.20;;;;;;5080338;28;20136;-80
2021/12/05 11:27:49;;;;;;;15.00;10.55;;;4.30;90.40;;;;;;5063030;28;20053;-79
2021/12/05 11:30:30;;;;;;;16.98;11.13;;;4.40;91.30;;;;;;5080064;28;20140;-79
2021/12/05 11:33:06;;;;;;;16.15;10.38;;;4.40;91.30;;;;;;5083581;28;20052;-79
2021/12/05 11:35:54;;;;;;;18.50;11.68;;;4.40;90.90;;;;;;5084077;28;20101;-79
2021/12/05 11:38:33;;;;;;;19.70;11.43;;;4.50;91.90;;;;;;5080098;28;20053;-79
2021/12/05 11:41:10;;;;;;;18.25;10.40;;;4.60;92.30;;;;;;5082640;28;20037;-79
2021/12/05 11:43:48;;;;;;;18.02;11.43;;;4.70;92.40;;;;;;5084202;28;20072;-79
2021/12/05 11:46:42;;;;;;;17.48;11.43;;;4.70;92.10;;;;;;5072269;28;20105;-79
2021/12/05 11:49:17;;;;;;;15.27;10.38;;;4.70;90.70;;;;;;5074324;28;20100;-79
2021/12/05 11:51:59;;;;;;;16.00;9.77;;;4.80;90.70;;;;;;5071119;28;21277;-79
2021/12/05 11:54:40;;;;;;;17.92;11.20;;;4.80;90.80;;;;;;5072369;28;20030;-79
2021/12/05 11:57:27;;;;;;;19.05;11.25;;;4.80;90.20;;;;;;5077392;28;20118;-79
2021/12/05 12:00:04;;;;;;;19.05;11.50;;;4.80;90.70;;;;;;5073584;28;20053;-79
2021/12/05 12:02:37;;;;;;;18.85;11.52;;;4.80;90.70;;;;;;5075017;28;20870;-79
2021/12/05 12:05:14;;;;;;;16.60;10.85;;;4.80;90.10;;;;;;5078933;28;20321;-79
2021/12/05 12:07:49;;;;;;;20.60;12.23;;;4.80;90.20;;;;;;5081575;28;20042;-79
2021/12/05 12:10:16;;;;;;;17.77;11.48;;;4.80;90.60;;;;;;5082918;28;20819;-79
2021/12/05 12:13:09;;;;;;;17.13;11.40;;;4.90;91.50;;;;;;5076664;28;20067;-79
2021/12/05 12:15:39;;;;;;;16.65;10.55;;;4.80;91.50;;;;;;5071197;28;20093;-79
2021/12/05 12:18:16;;;;;;;16.85;10.77;;;4.70;90.90;;;;;;5074458;28;20104;-79
2021/12/05 12:20:46;;;;;;;17.30;11.02;;;4.60;90.90;;;;;;5073127;28;20055;-79
2021/12/05 12:23:15;;;;;;;15.32;10.10;;;4.60;91.70;;;;;;5077255;28;20053;-79
2021/12/05 12:25:44;;;;;;;16.40;10.07;;;4.50;91.40;;;;;;5072020;28;20064;-79
2021/12/05 12:28:12;;;;;;;16.38;10.57;;;4.50;91.80;;;;;;5077151;28;20104;-79
2021/12/05 12:30:42;;;;;;;15.25;9.73;;;4.50;92.20;;;;;;5080083;28;20042;-79
2021/12/05 12:33:15;;;;;;;18.50;10.43;;;4.40;92.00;;;;;;5076200;28;20065;-79
2021/12/05 12:35:46;;;;;;;16.15;10.07;;;4.50;92.30;;;;;;5063840;28;20084;-79
2021/12/05 12:38:32;;;;;;;19.75;11.25;;;4.40;91.90;;;;;;5071835;28;20053;-79
2021/12/05 12:41:12;;;;;;;21.50;11.30;;;4.50;92.30;;;;;;5071159;28;20049;-79
2021/12/05 12:43:41;;;;;;;16.17;10.13;;;4.50;92.60;;;;;;5075268;28;20045;-79
2021/12/05 12:46:19;;;;;;;17.02;10.02;;;4.50;92.30;;;;;;5073491;28;20057;-79
2021/12/05 12:48:47;;;;;;;16.60;9.38;;;4.60;92.60;;;;;;5073201;28;21210;-79
2021/12/05 12:51:27;;;;;;;18.15;10.20;;;4.60;92.70;;;;;;5075216;28;20022;-78
2021/12/05 12:54:01;;;;;;;18.83;9.60;;;4.60;92.30;;;;;;5075132;28;20144;-78
2021/12/05 12:56:29;;;;;;;15.40;10.13;;;4.70;92.30;;;;;;5066660;28;20787;-79
2021/12/05 12:59:00;;;;;;;15.38;9.98;;;4.70;92.40;;;;;;5069431;28;20056;-78
2021/12/05 13:01:51;;;;;;;15.32;9.68;;;4.70;92.00;;;;;;5059182;28;20049;-79
2021/12/05 13:04:37;;;;;;;13.18;8.77;;;4.70;91.70;;;;;;5072186;28;20041;-79
2021/12/05 13:10:00;;;;;;;14.05;8.85;;;4.70;91.40;;;;;;5064476;28;20057;-79
2021/12/05 13:10:29;;;;;;;16.70;9.50;;;4.70;91.40;;;;;;5062870;28;20732;-78
2021/12/05 13:13:01;;;;;;;16.98;10.10;;;4.70;91.80;;;;;;5073474;28;20059;-79
2021/12/05 13:15:53;;;;;;;12.82;8.98;;;4.80;91.50;;;;;;5072989;28;20041;-79
2021/12/05 13:18:30;;;;;;;13.05;8.75;;;4.70;90.80;;;;;;5061349;28;20112;-78
2021/12/05 13:21:07;;;;;;;16.25;9.52;;;4.80;91.30;;;;;;5071067;28;20985;-79
2021/12/05 13:23:45;;;;;;;13.15;8.48;;;4.80;91.20;;;;;;5067039;28;20108;-79
2021/12/05 13:26:27;;;;;;;15.23;9.32;;;4.80;91.00;;;;;;5073974;28;21071;-79
2021/12/05 13:28:56;;;;;;;13.30;8.73;;;4.70;90.60;;;;;;5070621;28;20057;-79
2021/12/05 13:31:30;;;;;;;13.52;9.02;;;4.70;91.20;;;;;;5077192;28;20148;-79
2021/12/05 13:34:28;;;;;;;14.70;9.25;;;4.80;91.50;;;;;;5064041;28;20045;-79
2021/12/05 13:37:05;;;;;;;13.05;8.32;;;4.70;90.50;;;;;;5074543;28;20045;-79
2021/12/05 13:40:04;;;;;;;16.17;9.70;;;4.70;90.40;;;;;;5080998;28;20033;-78
2021/12/05 13:42:34;;;;;;;14.43;9.43;;;4.60;90.60;;;;;;5076700;28;20052;-78
2021/12/05 13:45:03;;;;;;;16.58;9.45;;;4.70;91.20;;;;;;5077867;28;20076;-79
2021/12/05 13:47:43;;;;;;;15.10;9.05;;;4.70;91.20;;;;;;5072082;28;20037;-79
2021/12/05 13:50:18;;;;;;;13.95;9.43;;;4.70;91.20;;;;;;5075566;28;20135;-79
2021/12/05 13:52:52;;;;;;;17.08;9.43;;;4.70;91.10;;;;;;5075614;28;20515;-79
2021/12/05 13:55:36;;;;;;;17.20;9.23;;;4.70;90.50;;;;;;5079846;28;20045;-78
2021/12/05 13:58:32;;;;;;;13.82;8.45;;;4.70;91.10;;;;;;5075556;28;20100;-78
2021/12/05 14:01:19;;;;;;;14.02;9.55;;;4.70;90.70;;;;;;5076017;28;20064;-78
2021/12/05 14:03:54;;;;;;;14.25;9.13;;;4.70;90.70;;;;;;5068158;28;20108;-78
2021/12/05 14:06:42;;;;;;;13.18;8.57;;;4.70;91.10;;;;;;5070615;28;20049;-79
2021/12/05 14:09:21;;;;;;;16.50;8.63;;;4.70;90.60;;;;;;5066839;28;20057;-79
2021/12/05 14:12:11;;;;;;;11.07;8.05;;;4.60;90.90;;;;;;5069875;28;20048;-79
2021/12/05 14:14:47;;;;;;;14.93;8.07;;;4.60;90.40;;;;;;5070621;28;20534;-79
2021/12/05 14:17:21;;;;;;;9.35;7.03;;;4.50;89.70;;;;;;5067842;28;20045;-79
2021/12/05 14:19:51;;;;;;;11.15;8.38;;;4.50;89.60;;;;;;5062356;28;20470;-79
2021/12/05 14:22:25;;;;;;;11.55;7.97;;;4.40;89.70;;;;;;5069313;28;20057;-80
2021/12/05 14:24:56;;;;;;;12.65;8.80;;;4.40;89.50;;;;;;5054385;28;20388;-79
2021/12/05 14:27:36;;;;;;;13.70;9.65;;;4.40;90.10;;;;;;5063387;28;20056;-79
2021/12/05 14:30:09;;;;;;;14.38;9.15;;;4.40;91.00;;;;;;5060865;28;20053;-79
2021/12/05 14:32:37;;;;;;;;;;;4.40;91.20;;;;;;5075897;28;20839;-78
2021/12/05 14:35:16;;;;;;;13.70;9.48;;;4.50;91.30;;;;;;5066408;28;20379;-79
2021/12/05 14:37:47;;;;;;;13.50;9.73;;;4.40;91.40;;;;;;5058107;28;20049;-78
2021/12/05 14:40:20;;;;;;;17.60;9.52;;;4.40;91.70;;;;;;5060304;28;20877;-79
2021/12/05 14:42:50;;;;;;;15.48;9.50;;;4.40;90.90;;;;;;5066769;28;20607;-79
2021/12/05 14:45:21;;;;;;;15.15;9.65;;;4.40;91.00;;;;;;5062952;28;20338;-79
2021/12/05 14:47:50;;;;;;;12.95;9.20;;;4.40;91.10;;;;;;5059838;28;20045;-79
2021/12/05 14:50:29;;;;;;;15.85;10.15;;;4.40;91.00;;;;;;5060452;28;20088;-80
2021/12/05 14:53:00;;;;;;;15.02;9.73;;;4.30;90.90;;;;;;5069289;28;20045;-80
2021/12/05 14:55:29;;;;;;;14.15;9.55;;;4.30;90.50;;;;;;5060866;28;20056;-79
2021/12/05 14:58:09;;;;;;;13.05;9.27;;;4.30;91.00;;;;;;5058186;28;20041;-79
2021/12/05 15:00:40;;;;;;;11.90;9.02;;;4.30;91.30;;;;;;5066401;28;20071;-79
2021/12/05 15:03:16;;;;;;;14.27;10.00;;;4.30;90.90;;;;;;5061185;28;20052;-79
2021/12/05 15:05:49;;;;;;;13.27;10.07;;;4.30;91.10;;;;;;5067887;28;20051;-79
2021/12/05 15:08:20;;;;;;;16.90;10.07;;;4.20;91.30;;;;;;5067052;28;20041;-79
2021/12/05 15:10:54;;;;;;;13.98;10.32;;;4.20;91.30;;;;;;5063561;28;20064;-79
2021/12/05 15:13:22;;;;;;;18.17;10.43;;;4.20;91.40;;;;;;5068049;28;20135;-78
2021/12/05 15:15:49;;;;;;;16.60;11.13;;;4.20;91.50;;;;;;5065266;28;20044;-79
2021/12/05 15:18:19;;;;;;;15.23;9.85;;;4.20;91.50;;;;;;5067058;28;20866;-79
2021/12/05 15:20:48;;;;;;;14.45;10.32;;;4.20;91.70;;;;;;5071036;28;20042;-78
2021/12/05 15:23:15;;;;;;;15.73;10.85;;;4.20;91.80;;;;;;5080127;28;20029;-79
2021/12/05 15:25:43;;;;;;;17.90;10.68;;;4.20;91.80;;;;;;5071797;28;20082;-79
2021/12/05 15:28:13;;;;;;;16.60;11.30;;;4.20;92.00;;;;;;5065536;28;20077;-79
2021/12/05 15:30:47;;;;;;;15.50;10.70;;;4.20;92.10;;;;;;5062694;28;20132;-79
2021/12/05 15:33:22;;;;;;;14.70;10.40;;;4.20;92.10;;;;;;5068424;28;20108;-79
2021/12/05 15:35:50;;;;;;;20.63;10.90;;;4.20;92.00;;;;;;5069073;28;20057;-79
2021/12/05 15:38:25;;;;;;;16.95;11.10;;;4.20;92.10;;;;;;5064016;28;20204;-79
2021/12/05 15:40:57;;;;;;;14.57;10.55;;;4.20;92.10;;;;;;5064442;28;20912;-79
2021/12/05 15:43:26;;;;;;;15.10;10.85;;;4.20;92.00;;;;;;5068212;28;20045;-79
2021/12/05 15:45:55;;;;;;;15.10;10.70;;;4.10;91.90;;;;;;5082745;28;20046;-79
2021/12/05 15:48:29;;;;;;;16.98;11.30;;;4.20;92.30;;;;;;5068278;28;20076;-79
2021/12/05 15:50:59;;;;;;;19.67;11.73;;;4.10;92.20;;;;;;5069102;28;20049;-79
2021/12/05 15:53:26;;;;;;;17.42;11.60;;;4.10;92.30;;;;;;5068830;28;20119;-79
2021/12/05 15:55:59;;;;;;;16.63;10.82;;;4.10;92.40;;;;;;5065370;28;20121;-79
2021/12/05 15:58:40;;;;;;;20.17;12.80;;;4.10;92.40;;;;;;5068469;28;20046;-79
2021/12/05 16:01:14;;;;;;;23.80;13.77;;;4.10;92.50;;;;;;5066445;28;20072;-79
2021/12/05 16:03:55;;;;;;;22.80;14.30;;;4.10;92.50;;;;;;5063053;28;20136;-79
2021/12/05 16:06:36;;;;;;;25.13;15.82;;;4.10;92.60;;;;;;5057333;28;21308;-78
2021/12/05 16:09:18;;;;;;;27.08;15.95;;;4.10;92.80;;;;;;5062488;28;20053;-78
2021/12/05 16:11:47;;;;;;;24.05;15.45;;;4.10;92.70;;;;;;5062919;28;20045;-78
2021/12/05 16:14:26;;;;;;;24.10;15.73;;;4.10;92.80;;;;;;5062933;28;20841;-79
2021/12/05 16:16:53;;;;;;;24.13;15.60;;;4.10;92.20;;;;;;5062389;28;20049;-79
2021/12/05 16:19:20;;;;;;;25.45;16.35;;;4.10;92.40;;;;;;5059339;28;20042;-79
2021/12/05 16:21:47;;;;;;;23.73;15.43;;;4.10;92.60;;;;;;5060725;28;20107;-79
2021/12/05 16:24:17;;;;;;;24.10;15.63;;;4.10;92.70;;;;;;5064384;28;20053;-79
2021/12/05 16:26:48;;;;;;;22.70;15.73;;;4.10;92.90;;;;;;5062198;28;21015;-79
2021/12/05 16:29:22;;;;;;;23.95;15.40;;;4.10;93.10;;;;;;5065156;28;20795;-79
2021/12/05 16:31:55;;;;;;;27.23;15.80;;;4.10;92.70;;;;;;5069563;28;20049;-79
2021/12/05 16:34:31;;;;;;;26.85;15.80;;;4.10;92.80;;;;;;5064276;28;20103;-79
2021/12/05 16:37:00;;;;;;;25.42;15.95;;;4.10;93.10;;;;;;5060979;28;20059;-79
2021/12/05 16:39:36;;;;;;;32.20;18.23;;;4.00;93.30;;;;;;5063921;28;20057;-79
2021/12/05 16:42:16;;;;;;;42.13;21.13;;;4.00;93.30;;;;;;5061314;28;20045;-79
2021/12/05 16:45:02;;;;;;;24.95;15.43;;;4.00;93.30;;;;;;5068498;28;20044;-78
2021/12/05 16:47:31;;;;;;;24.17;15.13;;;4.00;93.40;;;;;;5064049;28;20045;-80
2021/12/05 16:50:00;;;;;;;24.95;14.98;;;4.00;93.40;;;;;;5060820;28;20076;-79
2021/12/05 16:52:33;;;;;;;24.52;15.60;;;4.00;93.50;;;;;;5068432;28;20057;-78
2021/12/05 16:55:22;;;;;;;31.15;16.77;;;4.00;93.60;;;;;;5075363;28;20105;-79
2021/12/05 16:58:02;;;;;;;27.30;16.35;;;4.00;93.60;;;;;;5072180;28;20625;-78
2021/12/05 17:00:31;;;;;;;26.20;15.27;;;4.00;93.40;;;;;;5065628;28;20053;-78
2021/12/05 17:03:05;;;;;;;25.73;15.30;;;4.00;93.40;;;;;;5070437;28;20964;-79
2021/12/05 17:05:42;;;;;;;25.05;14.82;;;4.00;93.60;;;;;;5069488;28;20054;-79
2021/12/05 17:08:22;;;;;;;22.73;13.63;;;4.00;93.60;;;;;;5073487;28;20051;-80
2021/12/05 17:10:54;;;;;;;25.65;13.70;;;4.00;93.70;;;;;;5070651;28;20054;-79
2021/12/05 17:13:39;;;;;;;24.48;13.75;;;4.00;93.70;;;;;;5072710;28;20037;-79
2021/12/05 17:16:11;;;;;;;22.17;13.38;;;4.00;93.70;;;;;;5066736;28;20176;-79
2021/12/05 17:18:45;;;;;;;21.15;12.93;;;4.00;93.70;;;;;;5070121;28;20147;-80
2021/12/05 17:21:19;;;;;;;21.02;13.30;;;4.00;93.80;;;;;;5066599;28;20055;-79
2021/12/05 17:23:55;;;;;;;23.17;14.07;;;4.00;93.80;;;;;;5065728;28;20041;-79
2021/12/05 17:26:26;;;;;;;23.95;13.90;;;4.00;93.70;;;;;;5061917;28;20095;-79
2021/12/05 17:29:09;;;;;;;26.08;14.27;;;4.00;93.80;;;;;;5073823;28;20049;-79
2021/12/05 17:31:45;;;;;;;24.90;14.40;;;4.00;93.80;;;;;;5062739;28;20574;-79
2021/12/05 17:34:18;;;;;;;23.48;14.25;;;4.00;93.90;;;;;;5061746;28;20364;-79
2021/12/05 17:36:56;;;;;;;21.55;13.85;;;4.00;93.90;;;;;;5071297;28;20522;-78
2021/12/05 17:39:32;;;;;;;28.00;12.95;;;4.00;93.90;;;;;;5064256;28;20049;-79
2021/12/05 17:42:04;;;;;;;25.73;13.02;;;4.00;93.80;;;;;;5066019;28;20782;-79
2021/12/05 17:44:31;;;;;;;23.85;12.18;;;4.00;93.60;;;;;;5067810;28;20834;-79
2021/12/05 17:47:01;;;;;;;21.65;14.50;;;4.00;93.60;;;;;;5066789;28;20115;-80
2021/12/05 17:49:36;;;;;;;28.02;14.50;;;3.90;93.80;;;;;;5064970;28;20083;-79
2021/12/05 17:52:04;;;;;;;31.20;17.75;;;3.90;94.10;;;;;;5075754;28;20571;-78
2021/12/05 17:57:20;;;;;;;22.48;14.30;;;3.90;94.30;;;;;;5073345;28;20081;-80
2021/12/05 18:00:00;;;;;;;21.17;14.57;;;3.90;94.30;;;;;;5066251;28;20116;-78
2021/12/05 18:02:47;;;;;;;24.88;14.23;;;3.90;94.30;;;;;;5071698;28;20833;-78
2021/12/05 18:05:19;;;;;;;23.00;14.48;;;3.90;94.40;;;;;;5072202;28;20926;-79
2021/12/05 18:07:48;;;;;;;22.92;14.00;;;3.90;94.30;;;;;;5069275;28;20057;-78
2021/12/05 18:10:17;;;;;;;21.02;13.98;;;3.90;94.20;;;;;;5067491;28;20131;-79
2021/12/05 18:12:45;;;;;;;23.10;14.43;;;3.90;94.30;;;;;;5066048;28;20063;-79